Manns Harbor, North Carolina
Current Conditions -  °F | °C
As of 3:35 AM on Sunday 26 Oct 2014 (Local Time) from KMQI Reporting Station
Clear Clear  
Wind Chill: 60°   Ceiling: Unl
Heat Index: 60°   Visibility: 10mi
Dew Point: 47°   Wind: 8mph
Humidity: 61%   Direction: 270°W
Pressure: 29.76"   Gusts: NA
Location:  35.89°N, 75.76°W
Report Text: KMQI 260735Z AUTO 27007KT 240V360 10SM CLR 16/08 A2976 RMK AO2 T01550081
Loading
Personal Weather Stations






























Interactive Weather Map
Tropical Storm Tracking
New forecast layout! Learn more

10-Day Weather Forecast

Advertisements
Track Severe Weather on mobile